createdAt,value
2017-07-27T00:00:50.608Z,0
2017-07-27T00:01:50.278Z,0
2017-07-27T00:02:50.258Z,0
2017-07-27T00:03:50.286Z,0
2017-07-27T00:04:50.572Z,0
2017-07-27T00:05:50.578Z,0
2017-07-27T00:06:50.244Z,0
2017-07-27T00:07:50.259Z,0
2017-07-27T00:08:50.572Z,0
2017-07-27T00:09:50.237Z,0
2017-07-27T00:10:50.561Z,0
2017-07-27T00:11:50.537Z,0
2017-07-27T00:12:50.536Z,0
2017-07-27T00:13:50.222Z,0
2017-07-27T00:14:50.514Z,0
2017-07-27T00:15:50.550Z,0
2017-07-27T00:16:50.523Z,0
2017-07-27T00:17:50.534Z,0
2017-07-27T00:18:50.508Z,0
2017-07-27T00:19:50.513Z,0
2017-07-27T00:20:50.183Z,0
2017-07-27T00:21:50.205Z,0
2017-07-27T00:22:50.187Z,0
2017-07-27T00:23:50.505Z,0
2017-07-27T00:24:50.186Z,0
2017-07-27T00:25:50.189Z,0
2017-07-27T00:26:50.163Z,0
2017-07-27T00:27:50.156Z,0
2017-07-27T00:28:50.466Z,0
2017-07-27T00:29:50.469Z,0
2017-07-27T00:30:50.162Z,0
2017-07-27T00:31:50.161Z,0
2017-07-27T00:32:50.147Z,0
2017-07-27T00:33:50.146Z,0
2017-07-27T00:34:50.144Z,0
2017-07-27T00:35:50.135Z,0
2017-07-27T00:36:50.135Z,0
2017-07-27T00:37:50.428Z,0
2017-07-27T00:38:50.429Z,0
2017-07-27T00:39:50.439Z,0
2017-07-27T00:40:50.419Z,0
2017-07-27T00:41:50.430Z,0
2017-07-27T00:42:50.083Z,0
2017-07-27T00:43:50.403Z,0
2017-07-27T00:44:50.396Z,0
2017-07-27T00:45:50.398Z,0
2017-07-27T00:46:50.400Z,0
2017-07-27T00:47:50.080Z,0
2017-07-27T00:48:50.371Z,0
2017-07-27T00:49:49.774Z,0
2017-07-27T00:50:50.374Z,0
2017-07-27T00:51:50.386Z,0
2017-07-27T00:52:50.361Z,0
2017-07-27T00:53:50.381Z,0
2017-07-27T00:54:50.054Z,0
2017-07-27T00:55:50.360Z,0
2017-07-27T00:56:50.355Z,0
2017-07-27T00:57:50.354Z,0
2017-07-27T00:58:50.343Z,0
2017-07-27T00:59:50.347Z,0
2017-07-27T01:00:50.333Z,0
2017-07-27T01:01:50.321Z,0
2017-07-27T01:02:50.321Z,0
2017-07-27T01:03:50.018Z,0
2017-07-27T01:04:50.007Z,0
2017-07-27T01:05:50.325Z,0
2017-07-27T01:06:49.990Z,0
2017-07-27T01:07:50.307Z,0
2017-07-27T01:08:50.291Z,0
2017-07-27T01:09:50.299Z,0
2017-07-27T01:10:49.655Z,0
2017-07-27T01:11:49.680Z,0
2017-07-27T01:12:49.351Z,0
2017-07-27T01:13:49.658Z,0
2017-07-27T01:14:49.640Z,0
2017-07-27T01:15:50.277Z,0
2017-07-27T01:16:49.961Z,0
2017-07-27T01:17:50.251Z,0
2017-07-27T01:18:49.960Z,0
2017-07-27T01:19:50.237Z,0
2017-07-27T01:20:49.940Z,0
2017-07-27T01:21:50.235Z,0
2017-07-27T01:22:50.243Z,0
2017-07-27T01:23:49.609Z,0
2017-07-27T01:24:50.245Z,0
2017-07-27T01:25:50.226Z,0
2017-07-27T01:26:50.230Z,0
2017-07-27T01:27:49.889Z,0
2017-07-27T01:28:50.224Z,0
2017-07-27T01:29:50.216Z,0
2017-07-27T01:30:49.911Z,0
2017-07-27T01:31:50.206Z,0
2017-07-27T01:32:49.881Z,0
2017-07-27T01:33:49.876Z,0
2017-07-27T01:34:50.204Z,0
2017-07-27T01:35:49.552Z,0
2017-07-27T01:36:49.879Z,0
2017-07-27T01:37:49.865Z,0
2017-07-27T01:38:50.181Z,0
2017-07-27T01:39:49.854Z,0
2017-07-27T01:40:49.862Z,0
2017-07-27T01:41:49.852Z,0
2017-07-27T01:42:49.852Z,0
2017-07-27T01:43:49.845Z,0
2017-07-27T01:44:50.149Z,0
2017-07-27T01:45:49.817Z,0
2017-07-27T01:46:49.827Z,0
2017-07-27T01:47:49.821Z,0
2017-07-27T01:48:49.815Z,0
2017-07-27T01:49:49.818Z,0
2017-07-27T01:50:49.802Z,0
2017-07-27T01:51:49.797Z,0
2017-07-27T01:52:49.792Z,0
2017-07-27T01:53:49.788Z,0
2017-07-27T01:54:49.492Z,0
2017-07-27T01:55:49.474Z,0
2017-07-27T01:56:49.791Z,0
2017-07-27T01:57:49.465Z,0
2017-07-27T01:58:49.789Z,0
2017-07-27T01:59:49.762Z,0
2017-07-27T02:00:49.758Z,0
2017-07-27T02:01:49.762Z,0
2017-07-27T02:02:50.067Z,0
2017-07-27T02:03:50.079Z,0
2017-07-27T02:04:50.069Z,0
2017-07-27T02:05:50.036Z,0
2017-07-27T02:06:50.028Z,0
2017-07-27T02:07:50.057Z,0
2017-07-27T02:08:50.050Z,0
2017-07-27T02:09:50.046Z,0
2017-07-27T02:10:50.027Z,0
2017-07-27T02:11:49.716Z,0
2017-07-27T02:12:50.008Z,0
2017-07-27T02:13:50.006Z,0
2017-07-27T02:14:50.021Z,0
2017-07-27T02:15:50.011Z,0
2017-07-27T02:16:50.018Z,0
2017-07-27T02:17:49.698Z,0
2017-07-27T02:18:49.972Z,0
2017-07-27T02:19:50.005Z,0
2017-07-27T02:20:50.007Z,0
2017-07-27T02:21:49.996Z,0
2017-07-27T02:22:49.969Z,0
2017-07-27T02:23:49.982Z,0
2017-07-27T02:24:49.657Z,0
2017-07-27T02:25:49.981Z,0
2017-07-27T02:26:49.659Z,0
2017-07-27T02:27:49.976Z,0
2017-07-27T02:28:49.956Z,0
2017-07-27T02:29:49.958Z,0
2017-07-27T02:30:49.948Z,0
2017-07-27T02:31:49.963Z,0
2017-07-27T02:32:49.945Z,0
2017-07-27T02:33:49.948Z,0
2017-07-27T02:34:49.925Z,0
2017-07-27T02:35:49.933Z,0
2017-07-27T02:36:49.914Z,0
2017-07-27T02:37:49.922Z,0
2017-07-27T02:38:49.920Z,0
2017-07-27T02:39:49.907Z,0
2017-07-27T02:40:49.912Z,0
2017-07-27T02:41:49.910Z,0
2017-07-27T02:42:49.902Z,4
2017-07-27T02:43:49.898Z,4
2017-07-27T02:44:49.897Z,4
2017-07-27T02:45:49.897Z,0
2017-07-27T02:46:49.893Z,4
2017-07-27T02:47:49.874Z,4
2017-07-27T02:48:49.881Z,4
2017-07-27T02:49:49.562Z,8
2017-07-27T02:50:49.538Z,8
2017-07-27T02:51:49.837Z,8
2017-07-27T02:52:49.550Z,12
2017-07-27T02:53:49.538Z,8
2017-07-27T02:54:50.008Z,12
2017-07-27T02:55:49.523Z,12
2017-07-27T02:56:49.519Z,16
2017-07-27T02:57:49.831Z,16
2017-07-27T02:58:49.839Z,16
2017-07-27T02:59:49.812Z,20
2017-07-27T03:00:49.510Z,20
2017-07-27T03:01:49.813Z,24
2017-07-27T03:02:49.824Z,24
2017-07-27T03:03:49.795Z,28
2017-07-27T03:04:49.485Z,28
2017-07-27T03:05:49.491Z,32
2017-07-27T03:06:49.801Z,32
2017-07-27T03:07:49.796Z,40
2017-07-27T03:08:49.774Z,44
2017-07-27T03:09:49.777Z,48
2017-07-27T03:10:49.777Z,52
2017-07-27T03:11:49.778Z,56
2017-07-27T03:12:49.454Z,60
2017-07-27T03:13:49.430Z,68
2017-07-27T03:14:49.464Z,72
2017-07-27T03:15:49.437Z,76
2017-07-27T03:16:49.459Z,84
2017-07-27T03:17:49.430Z,88
2017-07-27T03:18:49.748Z,96
2017-07-27T03:19:49.734Z,104
2017-07-27T03:20:49.738Z,112
2017-07-27T03:21:49.729Z,124
2017-07-27T03:22:49.732Z,132
2017-07-27T03:23:49.429Z,140
2017-07-27T03:24:49.406Z,152
2017-07-27T03:25:49.707Z,164
2017-07-27T03:26:49.701Z,180
2017-07-27T03:27:49.712Z,196
2017-07-27T03:28:49.703Z,208
2017-07-27T03:29:49.393Z,220
2017-07-27T03:30:49.379Z,240
2017-07-27T03:31:49.687Z,252
2017-07-27T03:32:49.655Z,272
2017-07-27T03:33:49.355Z,288
2017-07-27T03:34:49.669Z,308
2017-07-27T03:35:49.358Z,328
2017-07-27T03:36:49.656Z,348
2017-07-27T03:37:49.658Z,388
2017-07-27T03:38:49.674Z,416
2017-07-27T03:39:49.646Z,440
2017-07-27T03:40:49.651Z,456
2017-07-27T03:41:49.643Z,472
2017-07-27T03:42:49.633Z,484
2017-07-27T03:43:49.636Z,508
2017-07-27T03:44:49.625Z,532
2017-07-27T03:45:49.641Z,564
2017-07-27T03:46:49.604Z,588
2017-07-27T03:47:49.620Z,608
2017-07-27T03:48:49.613Z,628
2017-07-27T03:49:49.309Z,652
2017-07-27T03:50:49.603Z,684
2017-07-27T03:51:49.651Z,728
2017-07-27T03:52:49.591Z,784
2017-07-27T03:53:49.602Z,800
2017-07-27T03:54:49.583Z,860
2017-07-27T03:55:49.571Z,932
2017-07-27T03:56:49.736Z,996
2017-07-27T03:57:49.571Z,1052
2017-07-27T03:58:49.582Z,1088
2017-07-27T03:59:49.551Z,1104
2017-07-27T04:00:49.571Z,1112
2017-07-27T04:01:49.561Z,1112
2017-07-27T04:02:49.556Z,1120
2017-07-27T04:03:49.553Z,1136
2017-07-27T04:04:49.228Z,1156
2017-07-27T04:05:49.550Z,1172
2017-07-27T04:06:49.525Z,1196
2017-07-27T04:07:49.528Z,1232
2017-07-27T04:08:49.572Z,1272
2017-07-27T04:09:49.524Z,1328
2017-07-27T04:10:49.505Z,1380
2017-07-27T04:11:49.509Z,1436
2017-07-27T04:12:49.503Z,1480
2017-07-27T04:13:49.513Z,1496
2017-07-27T04:14:49.502Z,1556
2017-07-27T04:15:49.508Z,1604
2017-07-27T04:16:48.866Z,1652
2017-07-27T04:17:49.499Z,1708
2017-07-27T04:18:49.494Z,1776
2017-07-27T04:19:49.492Z,1876
2017-07-27T04:20:49.472Z,1984
2017-07-27T04:21:49.168Z,2096
2017-07-27T04:22:49.467Z,2236
2017-07-27T04:23:49.472Z,2352
2017-07-27T04:24:49.476Z,2392
2017-07-27T04:25:49.462Z,2464
2017-07-27T04:26:49.442Z,2556
2017-07-27T04:27:49.565Z,2640
2017-07-27T04:28:49.436Z,2720
2017-07-27T04:29:49.434Z,2788
2017-07-27T04:30:49.418Z,2824
2017-07-27T04:31:49.448Z,2836
2017-07-27T04:32:49.128Z,2828
2017-07-27T04:33:49.448Z,2808
2017-07-27T04:34:48.802Z,2788
2017-07-27T04:35:49.425Z,2792
2017-07-27T04:36:49.088Z,2804
2017-07-27T04:37:49.407Z,2836
2017-07-27T04:38:49.398Z,2896
2017-07-27T04:39:49.098Z,2984
2017-07-27T04:40:49.406Z,3072
2017-07-27T04:41:49.484Z,3160
2017-07-27T04:42:49.379Z,3220
2017-07-27T04:43:49.371Z,3260
2017-07-27T04:44:49.387Z,3304
2017-07-27T04:45:49.391Z,3344
2017-07-27T04:46:49.386Z,3352
2017-07-27T04:47:49.343Z,3316
2017-07-27T04:48:49.380Z,3244
2017-07-27T04:49:49.351Z,3180
2017-07-27T04:50:49.052Z,3144
2017-07-27T04:51:49.035Z,3144
2017-07-27T04:52:49.350Z,3204
2017-07-27T04:53:49.041Z,3312
2017-07-27T04:54:49.333Z,3392
2017-07-27T04:55:49.040Z,3392
2017-07-27T04:56:49.335Z,3340
2017-07-27T04:57:49.337Z,3268
2017-07-27T04:58:49.503Z,3220
2017-07-27T04:59:49.309Z,3224
2017-07-27T05:00:49.321Z,3252
2017-07-27T05:01:49.325Z,3304
2017-07-27T05:02:49.309Z,3360
2017-07-27T05:03:48.990Z,3380
2017-07-27T05:04:49.317Z,3396
2017-07-27T05:05:49.285Z,3428
2017-07-27T05:06:48.991Z,3488
2017-07-27T05:07:48.958Z,3572
2017-07-27T05:08:48.973Z,3692
2017-07-27T05:09:48.960Z,3824
2017-07-27T05:10:49.272Z,4140
2017-07-27T05:11:48.943Z,4284
2017-07-27T05:12:48.942Z,4588
2017-07-27T05:13:49.260Z,5020
2017-07-27T05:14:48.962Z,5500
2017-07-27T05:15:49.263Z,6352
2017-07-27T05:16:49.244Z,7888
2017-07-27T05:17:49.242Z,13736
2017-07-27T05:18:49.250Z,10740
2017-07-27T05:19:49.247Z,15808
2017-07-27T05:20:49.236Z,11244
2017-07-27T05:21:49.224Z,11952
2017-07-27T05:22:49.235Z,22560
2017-07-27T05:23:48.908Z,13220
2017-07-27T05:24:48.913Z,9528
2017-07-27T05:25:48.888Z,7960
2017-07-27T05:26:48.895Z,7388
2017-07-27T05:27:48.885Z,7100
2017-07-27T05:28:48.890Z,6876
2017-07-27T05:29:48.888Z,7144
2017-07-27T05:30:48.904Z,7144
2017-07-27T05:31:48.886Z,7588
2017-07-27T05:32:48.866Z,7612
2017-07-27T05:33:48.882Z,7444
2017-07-27T05:34:49.158Z,7296
2017-07-27T05:35:48.886Z,7336
2017-07-27T05:36:48.872Z,7492
2017-07-27T05:37:48.871Z,7664
2017-07-27T05:38:48.847Z,7736
2017-07-27T05:39:49.191Z,7740
2017-07-27T05:40:49.171Z,7716
2017-07-27T05:41:49.185Z,7928
2017-07-27T05:42:49.163Z,8524
2017-07-27T05:43:48.875Z,9212
2017-07-27T05:44:49.157Z,11568
2017-07-27T05:45:48.530Z,18688
2017-07-27T05:46:49.162Z,20288
2017-07-27T05:47:48.576Z,38240
2017-07-27T05:48:48.839Z,40736
2017-07-27T05:49:49.142Z,38368
2017-07-27T05:50:48.835Z,22080
2017-07-27T05:51:49.161Z,20096
2017-07-27T05:52:48.520Z,28064
2017-07-27T05:53:48.839Z,39744
2017-07-27T05:54:49.158Z,42400
2017-07-27T05:55:48.845Z,34944
2017-07-27T05:56:49.147Z,29088
2017-07-27T05:57:48.523Z,41248
2017-07-27T05:58:49.157Z,42368
2017-07-27T05:59:49.171Z,42432
2017-07-27T06:00:49.162Z,42784
2017-07-27T06:01:49.212Z,43360
2017-07-27T06:02:49.175Z,44800
2017-07-27T06:03:49.185Z,45024
2017-07-27T06:04:49.165Z,44512
2017-07-27T06:05:49.180Z,44736
2017-07-27T06:06:49.165Z,45152
2017-07-27T06:07:48.567Z,45888
2017-07-27T06:08:49.178Z,46464
2017-07-27T06:09:48.873Z,45536
2017-07-27T06:10:48.911Z,33664
2017-07-27T06:11:49.202Z,20000
2017-07-27T06:12:48.921Z,35712
2017-07-27T06:13:48.603Z,40160
2017-07-27T06:14:49.250Z,42208
2017-07-27T06:15:49.224Z,44768
2017-07-27T06:16:49.245Z,43040
2017-07-27T06:17:49.248Z,43968
2017-07-27T06:18:49.272Z,41216
2017-07-27T06:19:49.290Z,41856
2017-07-27T06:20:48.669Z,42368
2017-07-27T06:21:48.675Z,42240
2017-07-27T06:22:49.305Z,40896
2017-07-27T06:23:49.021Z,39776
2017-07-27T06:24:49.019Z,40608
2017-07-27T06:25:48.729Z,40896
2017-07-27T06:26:49.034Z,39776
2017-07-27T06:27:49.059Z,37376
2017-07-27T06:28:49.357Z,35680
2017-07-27T06:29:49.074Z,35264
2017-07-27T06:30:49.084Z,35712
2017-07-27T06:31:49.114Z,36960
2017-07-27T06:32:49.113Z,37664
2017-07-27T06:33:49.446Z,37664
2017-07-27T06:34:49.446Z,36672
2017-07-27T06:35:49.462Z,38112
2017-07-27T06:36:49.481Z,44576
2017-07-27T06:37:49.477Z,47584
2017-07-27T06:38:49.513Z,61920
2017-07-27T06:39:48.902Z,68352
2017-07-27T06:40:49.536Z,68896
2017-07-27T06:41:49.254Z,71456
2017-07-27T06:42:49.538Z,69152
2017-07-27T06:43:49.259Z,65088
2017-07-27T06:44:49.602Z,63616
2017-07-27T06:45:49.294Z,62368
2017-07-27T06:46:49.624Z,53856
2017-07-27T06:47:49.646Z,70688
2017-07-27T06:48:49.668Z,76288
2017-07-27T06:49:49.679Z,80928
2017-07-27T06:50:49.686Z,76512
2017-07-27T06:51:49.691Z,61760
2017-07-27T06:52:50.908Z,60416
2017-07-27T06:53:49.730Z,70176
2017-07-27T06:54:51.148Z,83872
2017-07-27T06:55:49.761Z,91488
2017-07-27T06:56:49.801Z,95264
2017-07-27T06:57:49.806Z,71200
2017-07-27T06:58:49.822Z,73056
2017-07-27T06:59:49.520Z,60704
2017-07-27T07:00:49.861Z,59744
2017-07-27T07:01:49.859Z,38432
2017-07-27T07:02:49.879Z,35552
2017-07-27T07:03:49.604Z,45088
2017-07-27T07:04:49.938Z,64704
2017-07-27T07:05:49.919Z,78240
2017-07-27T07:06:49.642Z,82432
2017-07-27T07:07:49.975Z,86752
2017-07-27T07:08:49.684Z,88224
2017-07-27T07:09:50.003Z,86912
2017-07-27T07:10:49.715Z,82752
2017-07-27T07:11:50.035Z,82240
2017-07-27T07:12:51.454Z,67776
2017-07-27T07:13:50.307Z,71808
2017-07-27T07:14:50.092Z,67872
2017-07-27T07:15:49.804Z,56768
2017-07-27T07:16:49.833Z,50464
2017-07-27T07:17:50.153Z,56640
2017-07-27T07:18:49.856Z,68064
2017-07-27T07:19:50.185Z,79104
2017-07-27T07:20:50.190Z,71104
2017-07-27T07:21:50.231Z,55232
2017-07-27T07:22:50.220Z,48096
2017-07-27T07:23:50.274Z,47104
2017-07-27T07:24:50.282Z,34816
2017-07-27T07:25:50.283Z,34304
2017-07-27T07:26:50.304Z,31488
2017-07-27T07:27:50.330Z,33920
2017-07-27T07:28:50.331Z,38176
2017-07-27T07:29:50.331Z,49856
2017-07-27T07:30:50.068Z,42848
2017-07-27T07:31:50.379Z,39264
2017-07-27T07:32:50.409Z,45088
2017-07-27T07:33:50.428Z,51136
2017-07-27T07:34:50.435Z,44736
2017-07-27T07:35:50.157Z,48800
2017-07-27T07:36:50.440Z,41184
2017-07-27T07:37:50.493Z,47808
2017-07-27T07:38:50.498Z,47168
2017-07-27T07:39:50.211Z,45632
2017-07-27T07:40:50.520Z,44224
2017-07-27T07:41:50.532Z,40896
2017-07-27T07:42:50.584Z,39008
2017-07-27T07:43:50.300Z,39040
2017-07-27T07:44:50.602Z,42848
2017-07-27T07:45:50.602Z,48128
2017-07-27T07:46:50.321Z,52672
2017-07-27T07:47:50.659Z,55136
2017-07-27T07:48:50.671Z,56416
2017-07-27T07:49:50.692Z,60288
2017-07-27T07:50:50.687Z,61056
2017-07-27T07:51:50.093Z,60160
2017-07-27T07:52:50.745Z,58464
2017-07-27T07:53:50.743Z,53568
2017-07-27T07:54:50.794Z,49280
2017-07-27T07:55:50.769Z,50976
2017-07-27T07:56:50.817Z,55488
2017-07-27T07:57:50.797Z,60416
2017-07-27T07:58:50.554Z,63936
2017-07-27T07:59:50.866Z,65504
2017-07-27T08:00:50.890Z,66400
2017-07-27T08:01:50.897Z,66528
2017-07-27T08:02:50.897Z,63744
2017-07-27T08:03:50.933Z,61472
2017-07-27T08:04:50.944Z,62272
2017-07-27T08:05:50.982Z,66464
2017-07-27T08:06:50.989Z,70944
2017-07-27T08:07:51.020Z,73920
2017-07-27T08:08:50.720Z,85600
2017-07-27T08:09:50.752Z,96640
2017-07-27T08:10:51.058Z,100896
2017-07-27T08:11:51.093Z,105632
2017-07-27T08:12:51.112Z,112832
2017-07-27T08:13:51.131Z,112352
2017-07-27T08:14:51.146Z,110112
2017-07-27T08:15:51.150Z,110304
2017-07-27T08:16:51.173Z,109568
2017-07-27T08:17:51.212Z,111904
2017-07-27T08:18:51.593Z,113088
2017-07-27T08:19:51.249Z,110816
2017-07-27T08:20:51.269Z,101568
2017-07-27T08:21:51.288Z,83200
2017-07-27T08:22:51.297Z,73280
2017-07-27T08:23:51.322Z,65280
2017-07-27T08:24:51.346Z,62880
2017-07-27T08:25:51.378Z,67104
2017-07-27T08:26:51.059Z,78016
2017-07-27T08:27:51.095Z,88480
2017-07-27T08:28:51.101Z,95808
2017-07-27T08:29:51.444Z,96224
2017-07-27T08:30:51.452Z,83168
2017-07-27T08:31:51.471Z,64800
2017-07-27T08:32:51.485Z,49344
2017-07-27T08:33:51.513Z,45216
2017-07-27T08:34:51.534Z,53792
2017-07-27T08:35:51.548Z,72512
2017-07-27T08:36:51.564Z,85888
2017-07-27T08:37:51.270Z,83456
2017-07-27T08:38:51.620Z,74112
2017-07-27T08:39:51.004Z,73824
2017-07-27T08:40:51.339Z,76992
2017-07-27T08:41:51.638Z,77536
2017-07-27T08:42:51.690Z,72512
2017-07-27T08:43:51.377Z,70304
2017-07-27T08:44:51.693Z,67360
2017-07-27T08:45:51.428Z,70784
2017-07-27T08:46:51.738Z,72224
2017-07-27T08:47:51.764Z,74528
2017-07-27T08:48:51.773Z,76032
2017-07-27T08:49:51.805Z,77952
2017-07-27T08:50:51.823Z,81216
2017-07-27T08:51:51.823Z,84704
2017-07-27T08:52:51.549Z,80448
2017-07-27T08:53:51.540Z,72448
2017-07-27T08:54:51.892Z,39936
2017-07-27T08:55:51.588Z,12072
2017-07-27T08:56:51.608Z,10356
2017-07-27T08:57:51.936Z,10792
2017-07-27T08:58:51.633Z,11128
2017-07-27T08:59:51.930Z,11460
2017-07-27T09:00:51.972Z,11448
2017-07-27T09:01:51.970Z,11108
2017-07-27T09:02:51.695Z,10856
2017-07-27T09:03:51.710Z,10960
2017-07-27T09:05:51.718Z,11580
2017-07-27T09:06:51.717Z,12076
2017-07-27T09:07:51.754Z,12240
2017-07-27T09:08:51.747Z,13232
2017-07-27T09:09:51.784Z,14748
2017-07-27T09:10:52.095Z,14248
2017-07-27T09:11:51.769Z,15300
2017-07-27T09:12:51.805Z,14336
2017-07-27T09:13:52.113Z,13252
2017-07-27T09:14:51.813Z,13560
2017-07-27T09:15:51.817Z,15204
2017-07-27T09:17:51.832Z,18496
2017-07-27T09:18:52.388Z,19008
2017-07-27T09:19:52.181Z,18080
2017-07-27T09:20:51.850Z,16320
2017-07-27T09:21:52.212Z,14468
2017-07-27T09:22:51.861Z,13312
2017-07-27T09:23:51.893Z,13028
2017-07-27T09:24:52.185Z,12752
2017-07-27T09:25:52.215Z,11856
2017-07-27T09:26:52.225Z,11708
2017-07-27T09:27:51.918Z,13840
2017-07-27T09:28:52.234Z,14468
2017-07-27T09:29:51.931Z,16088
2017-07-27T09:30:51.923Z,16744
2017-07-27T09:31:51.950Z,15920
2017-07-27T09:32:52.259Z,16228
2017-07-27T09:33:52.251Z,16096
2017-07-27T09:34:52.255Z,16420
2017-07-27T09:35:52.289Z,16620
2017-07-27T09:36:52.286Z,16392
2017-07-27T09:37:52.288Z,15896
2017-07-27T09:38:52.285Z,16180
2017-07-27T09:39:51.998Z,14652
2017-07-27T09:40:52.285Z,13524
2017-07-27T09:41:52.330Z,13348
2017-07-27T09:42:52.016Z,13156
2017-07-27T09:43:52.025Z,13728
2017-07-27T09:44:52.321Z,14504
2017-07-27T09:45:52.338Z,16044
2017-07-27T09:46:52.334Z,18400
2017-07-27T09:47:52.367Z,18976
2017-07-27T09:48:52.044Z,18688
2017-07-27T09:49:52.053Z,18592
2017-07-27T09:50:52.365Z,17376
2017-07-27T09:51:52.371Z,16512
2017-07-27T09:52:52.076Z,16204
2017-07-27T09:53:52.078Z,15976
2017-07-27T09:54:52.083Z,15752
2017-07-27T09:55:52.076Z,16500
2017-07-27T09:56:52.410Z,17888
2017-07-27T09:57:52.412Z,19936
2017-07-27T09:58:52.415Z,21792
2017-07-27T09:59:52.092Z,23584
2017-07-27T10:00:51.814Z,25312
2017-07-27T10:01:52.119Z,26272
2017-07-27T10:02:52.117Z,26656
2017-07-27T10:03:52.140Z,26464
2017-07-27T10:04:52.134Z,26784
2017-07-27T10:05:52.453Z,27808
2017-07-27T10:06:52.133Z,28800
2017-07-27T10:07:52.150Z,29568
2017-07-27T10:08:52.480Z,30112
2017-07-27T10:09:52.484Z,30368
2017-07-27T10:10:52.207Z,29760
2017-07-27T10:11:52.182Z,28608
2017-07-27T10:12:52.198Z,28096
2017-07-27T10:13:52.182Z,28032
2017-07-27T10:14:52.516Z,28320
2017-07-27T10:15:52.214Z,29568
2017-07-27T10:16:52.560Z,29696
2017-07-27T10:17:52.534Z,30112
2017-07-27T10:18:51.914Z,30176
2017-07-27T10:19:51.917Z,29568
2017-07-27T10:20:52.237Z,29568
2017-07-27T10:21:52.282Z,29728
2017-07-27T10:22:52.585Z,30016
2017-07-27T10:23:52.599Z,29824
2017-07-27T10:24:52.563Z,29696
2017-07-27T10:25:51.991Z,29376
2017-07-27T10:26:52.615Z,28736
2017-07-27T10:27:52.615Z,26208
2017-07-27T10:28:52.304Z,24064
2017-07-27T10:29:52.304Z,23360
2017-07-27T10:30:52.027Z,24640
2017-07-27T10:31:52.630Z,26624
2017-07-27T10:32:52.661Z,27680
2017-07-27T10:33:52.681Z,27104
2017-07-27T10:34:52.680Z,26912
2017-07-27T10:35:52.658Z,26944
2017-07-27T10:36:52.054Z,26848
2017-07-27T10:37:52.064Z,27808
2017-07-27T10:38:52.716Z,28768
2017-07-27T10:39:52.739Z,29504
2017-07-27T10:40:52.710Z,30176
2017-07-27T10:41:52.733Z,30880
2017-07-27T10:42:52.106Z,31104
2017-07-27T10:43:52.754Z,30304
2017-07-27T10:44:52.124Z,30304
2017-07-27T10:45:52.777Z,29856
2017-07-27T10:46:52.756Z,31072
2017-07-27T10:47:52.796Z,32192
2017-07-27T10:48:52.789Z,32992
2017-07-27T10:49:52.799Z,33504
2017-07-27T10:50:52.812Z,33728
2017-07-27T10:51:52.512Z,33696
2017-07-27T10:52:52.816Z,33408
2017-07-27T10:53:52.826Z,33152
2017-07-27T10:54:52.833Z,32928
2017-07-27T10:55:52.552Z,32640
2017-07-27T10:56:52.860Z,32480
2017-07-27T10:57:52.247Z,32384
2017-07-27T10:58:52.246Z,32256
2017-07-27T10:59:52.577Z,31904
2017-07-27T11:00:52.904Z,31776
2017-07-27T11:01:52.918Z,31616
2017-07-27T11:02:52.903Z,31200
2017-07-27T11:03:52.617Z,30400
2017-07-27T11:04:52.922Z,29952
2017-07-27T11:05:52.934Z,29984
2017-07-27T11:06:52.332Z,29472
2017-07-27T11:07:52.959Z,28544
2017-07-27T11:08:52.643Z,26464
2017-07-27T11:09:52.983Z,22336
2017-07-27T11:10:52.996Z,20064
2017-07-27T11:11:52.380Z,19040
2017-07-27T11:12:52.707Z,18080
2017-07-27T11:13:53.004Z,16224
2017-07-27T11:14:52.696Z,13952
2017-07-27T11:15:53.050Z,13124
2017-07-27T11:16:53.063Z,13084
2017-07-27T11:17:53.044Z,12620
2017-07-27T11:18:53.059Z,11224
2017-07-27T11:19:53.054Z,9300
2017-07-27T11:20:53.093Z,8412
2017-07-27T11:21:53.077Z,8776
2017-07-27T11:22:53.085Z,10196
2017-07-27T11:23:52.791Z,12000
2017-07-27T11:24:52.782Z,13272
2017-07-27T11:25:52.811Z,13920
2017-07-27T11:26:53.128Z,14344
2017-07-27T11:27:53.148Z,14736
2017-07-27T11:28:52.836Z,15016
2017-07-27T11:29:53.157Z,15012
2017-07-27T11:30:52.836Z,14744
2017-07-27T11:31:52.853Z,14740
2017-07-27T11:32:53.164Z,15040
2017-07-27T11:33:53.185Z,15356
2017-07-27T11:34:52.881Z,15668
2017-07-27T11:35:53.211Z,15908
2017-07-27T11:36:52.882Z,16256
2017-07-27T11:37:53.209Z,16576
2017-07-27T11:38:52.896Z,16896
2017-07-27T11:39:52.926Z,16992
2017-07-27T11:40:53.241Z,16736
2017-07-27T11:41:53.237Z,16480
2017-07-27T11:42:53.228Z,16480
2017-07-27T11:43:53.268Z,16768
2017-07-27T11:44:53.256Z,17120
2017-07-27T11:45:52.963Z,17408
2017-07-27T11:46:52.944Z,17376
2017-07-27T11:47:52.664Z,16960
2017-07-27T11:48:53.285Z,16768
2017-07-27T11:49:53.291Z,17280
2017-07-27T11:50:53.282Z,18336
2017-07-27T11:51:53.302Z,19712
2017-07-27T11:52:53.284Z,20672
2017-07-27T11:53:53.300Z,20800
2017-07-27T11:54:53.308Z,20224
2017-07-27T11:55:53.346Z,19232
2017-07-27T11:56:53.026Z,18176
2017-07-27T11:57:53.335Z,17056
2017-07-27T11:58:53.342Z,15920
2017-07-27T11:59:53.324Z,15240
2017-07-27T12:00:53.361Z,14912
2017-07-27T12:01:53.360Z,14728
2017-07-27T12:02:53.363Z,14036
2017-07-27T12:03:53.376Z,13420
2017-07-27T12:04:53.370Z,13428
2017-07-27T12:05:53.382Z,13656
2017-07-27T12:06:53.387Z,13952
2017-07-27T12:07:53.077Z,14328
2017-07-27T12:08:53.405Z,13772
2017-07-27T12:09:53.397Z,12564
2017-07-27T12:10:53.403Z,11452
2017-07-27T12:11:53.424Z,11116
2017-07-27T12:12:53.115Z,10940
2017-07-27T12:13:53.413Z,10708
2017-07-27T12:14:53.434Z,10092
2017-07-27T12:15:53.108Z,9460
2017-07-27T12:16:53.131Z,9164
2017-07-27T12:17:53.457Z,9524
2017-07-27T12:18:53.450Z,10296
2017-07-27T12:19:53.447Z,11124
2017-07-27T12:20:53.469Z,11680
2017-07-27T12:21:53.132Z,12312
2017-07-27T12:22:53.475Z,13184
2017-07-27T12:23:53.468Z,14452
2017-07-27T12:24:53.482Z,15920
2017-07-27T12:25:53.487Z,16960
2017-07-27T12:26:53.487Z,16960
2017-07-27T12:27:53.158Z,16320
2017-07-27T12:28:53.490Z,15512
2017-07-27T12:29:53.502Z,14844
2017-07-27T12:30:53.201Z,14192
2017-07-27T12:31:53.209Z,13748
2017-07-27T12:32:53.194Z,13444
2017-07-27T12:33:53.219Z,13124
2017-07-27T12:34:53.536Z,12984
2017-07-27T12:35:53.529Z,13060
2017-07-27T12:36:53.553Z,13008
2017-07-27T12:37:53.516Z,13112
2017-07-27T12:38:53.535Z,13508
2017-07-27T12:39:53.535Z,13996
2017-07-27T12:40:53.261Z,14348
2017-07-27T12:41:52.932Z,14204
2017-07-27T12:42:53.584Z,13888
2017-07-27T12:43:53.226Z,13712
2017-07-27T12:44:53.577Z,13952
2017-07-27T12:45:53.572Z,13592
2017-07-27T12:46:53.270Z,13672
2017-07-27T12:47:53.561Z,14656
2017-07-27T12:48:53.596Z,15744
2017-07-27T12:49:53.591Z,16352
2017-07-27T12:50:53.599Z,15224
2017-07-27T12:51:53.590Z,13396
2017-07-27T12:52:53.603Z,11384
2017-07-27T12:53:53.287Z,9140
2017-07-27T12:54:53.606Z,9684
2017-07-27T12:55:53.605Z,11192
2017-07-27T12:56:53.630Z,11776
2017-07-27T12:57:53.614Z,12048
2017-07-27T12:58:53.647Z,12000
2017-07-27T12:59:53.621Z,9820
2017-07-27T13:00:53.630Z,7784
2017-07-27T13:01:53.633Z,6836
2017-07-27T13:02:53.022Z,6488
2017-07-27T13:03:53.627Z,6172
2017-07-27T13:04:53.663Z,6092
2017-07-27T13:05:53.646Z,6072
2017-07-27T13:06:53.655Z,5640
2017-07-27T13:07:53.333Z,5264
2017-07-27T13:08:53.662Z,5264
2017-07-27T13:09:53.659Z,5668
2017-07-27T13:10:53.665Z,5728
2017-07-27T13:11:53.652Z,5320
2017-07-27T13:12:53.375Z,5052
2017-07-27T13:13:53.369Z,5136
2017-07-27T13:14:53.696Z,5436
2017-07-27T13:15:53.667Z,5896
2017-07-27T13:16:53.369Z,6044
2017-07-27T13:17:53.696Z,6104
2017-07-27T13:18:53.694Z,6320
2017-07-27T13:19:53.694Z,7276
2017-07-27T13:20:53.685Z,8304
2017-07-27T13:21:54.094Z,9196
2017-07-27T13:22:53.691Z,10476
2017-07-27T13:23:53.710Z,11588
2017-07-27T13:24:53.389Z,12176
2017-07-27T13:25:53.701Z,12496